CMA CGM Africa Four — C6YS9 — position and weather

sailwx.info

Track history (hours):
 
Tides and Currents Weather Stations Pressure Air Temp Water Temp Dewpoint Dewpoint Depression Visibility Wind Speed Wind Dir Waves Ship Positions

CMA CGM Africa Four

Last reported at 2018-Jan-23 02:00 UTC. Time now 2018-Jan-23 02:17 UTC.
Position N 49°27' E 000°10'.

Length 227 m; draft 10.1 m.

Type: Ship (hazmat cat A). MMSI: 311044100.

Date/timePositionNaut miles runAvg speedWind from/ knotsBaromVisibWave heightAir tempDewpointWater temp
2018-Jan-23 02:00N 49°27' E 000°10'0 0.0
2018-Jan-23 01:30N 49°27' E 000°10'0 0.0
2018-Jan-23 01:00N 49°27' E 000°10'0 0.0
2018-Jan-23 00:30N 49°27' E 000°10'0 0.0
2018-Jan-23 00:00N 49°27' E 000°10'0 0.0
2018-Jan-22 23:30N 49°27' E 000°10'0 0.0
2018-Jan-22 23:00N 49°27' E 000°10'0 0.0
2018-Jan-22 22:30N 49°27' E 000°10'0 0.0
2018-Jan-22 22:00N 49°27' E 000°10'0 0.0
2018-Jan-22 21:30N 49°27' E 000°10'0 0.0
2018-Jan-22 21:00N 49°27' E 000°10'0 0.0
2018-Jan-22 20:30N 49°27' E 000°10'0 0.0
2018-Jan-22 20:00N 49°27' E 000°10'0 0.0
2018-Jan-22 19:30N 49°27' E 000°10'0 0.0
2018-Jan-22 19:00N 49°27' E 000°10'0 0.0
2018-Jan-22 18:30N 49°27' E 000°10'0 0.0
2018-Jan-22 18:00N 49°27' E 000°10'0 0.0
2018-Jan-22 17:30N 49°27' E 000°10'0 0.0
2018-Jan-22 17:00N 49°27' E 000°10'0 0.0
2018-Jan-22 16:30N 49°27' E 000°10'0 0.0
2018-Jan-22 16:00N 49°27' E 000°10'0 0.0
2018-Jan-22 15:30N 49°27' E 000°10'0 0.0
2018-Jan-22 15:00N 49°27' E 000°10'0 0.0
2018-Jan-22 14:30N 49°27' E 000°10'0 0.0
2018-Jan-22 14:00N 49°27' E 000°10'0 0.0
2018-Jan-22 13:30N 49°27' E 000°10'0 0.7
2018-Jan-22 13:00N 49°27' E 000°10'2 4.2
2018-Jan-22 12:31N 49°28' E 000°07'5 9.1
2018-Jan-22 12:01N 49°30' E 000°01'510.2
2018-Jan-22 11:30N 49°32' W 000°07'1 1.9
2018-Jan-22 11:00N 49°32' W 000°08'4 7.5
2018-Jan-22 10:30N 49°35' W 000°12'1 2.1
2018-Jan-22 10:00N 49°35' W 000°14'0 0.1
2018-Jan-22 09:17N 49°35' W 000°14'0 0.1
2018-Jan-22 08:56N 49°35' W 000°14'0 0.1
2018-Jan-22 08:29N 49°35' W 000°14'0 0.0
2018-Jan-22 07:59N 49°35' W 000°14'0 0.4
2018-Jan-22 07:29N 49°35' W 000°14'0 0.3
2018-Jan-22 06:58N 49°35' W 000°14'0 0.1
2018-Jan-22 06:30N 49°35' W 000°14'0 0.1
2018-Jan-22 06:00N 49°35' W 000°14'0 0.2
2018-Jan-22 05:29N 49°35' W 000°14'0 0.2
2018-Jan-22 04:58N 49°35' W 000°14'0 0.2
2018-Jan-22 04:30N 49°35' W 000°14'0 0.1
2018-Jan-22 03:58N 49°35' W 000°14'0 0.0
2018-Jan-22 03:28N 49°35' W 000°14'0 0.1
2018-Jan-22 02:58N 49°35' W 000°14'0 0.0
2018-Jan-22 02:30N 49°35' W 000°14'0 0.0
2018-Jan-22 01:59N 49°35' W 000°14'0 0.0
2018-Jan-22 01:25N 49°35' W 000°14'0 0.0
2018-Jan-22 00:58N 49°35' W 000°14'0 0.0
2018-Jan-22 00:28N 49°35' W 000°14'0 0.0
2018-Jan-22 00:00N 49°35' W 000°14'0 0.0
2018-Jan-21 23:30N 49°35' W 000°14'0 0.1
2018-Jan-21 22:59N 49°35' W 000°14'0 0.0
2018-Jan-21 22:29N 49°35' W 000°14'0 0.0
2018-Jan-21 21:59N 49°35' W 000°14'0 0.0
2018-Jan-21 21:28N 49°35' W 000°14'0 0.0
2018-Jan-21 20:55N 49°35' W 000°14'0 0.0
2018-Jan-21 20:28N 49°35' W 000°14'0 0.0
2018-Jan-21 20:00N 49°35' W 000°14'0 0.0
2018-Jan-21 19:29N 49°35' W 000°14'0 0.0
2018-Jan-21 18:59N 49°35' W 000°14'0 0.0
2018-Jan-21 18:30N 49°35' W 000°14'0 0.1
2018-Jan-21 18:00N 49°35' W 000°14'0 0.1
2018-Jan-21 17:30N 49°35' W 000°14'0 0.0
2018-Jan-21 16:59N 49°35' W 000°14'0 0.0
2018-Jan-21 16:29N 49°35' W 000°14'0 0.0
2018-Jan-21 16:00N 49°35' W 000°14'0 0.0
2018-Jan-21 15:29N 49°35' W 000°14'0 0.1
2018-Jan-21 15:00N 49°35' W 000°14'0 0.0
2018-Jan-21 14:29N 49°35' W 000°14'0 0.0
2018-Jan-21 13:59N 49°35' W 000°14'0 0.0
2018-Jan-21 13:29N 49°35' W 000°14'0 0.1
2018-Jan-21 13:01N 49°35' W 000°14'0 0.1
2018-Jan-21 12:30N 49°35' W 000°14'2 4.2
2018-Jan-21 12:00N 49°36' W 000°12'4 8.4
2018-Jan-21 11:30N 49°40' W 000°10'5 9.9
2018-Jan-21 11:00N 49°45' W 000°09'510.3
2018-Jan-21 10:30N 49°51' W 000°09'510.7
2018-Jan-21 10:00N 49°56' W 000°08'611.2
2018-Jan-21 09:30N 50°02' W 000°07'611.5
2018-Jan-21 09:00N 50°07' W 000°06'912.0
2018-Jan-21 08:15N 50°16' W 000°04'512.2
2018-Jan-21 07:50N 50°21' W 000°04'513.5
2018-Jan-21 07:30N 50°26' W 000°03'613.1
2018-Jan-21 07:00N 50°29' E 000°06'714.7
2018-Jan-21 06:30N 50°32' E 000°17'714.8
2018-Jan-21 06:00N 50°34' E 000°28'714.4
2018-Jan-21 05:30N 50°37' E 000°38'714.3
2018-Jan-21 05:00N 50°42' E 000°47'713.7
2018-Jan-21 04:30N 50°45' E 000°56'713.3
2018-Jan-21 04:00N 50°49' E 001°05'612.7
2018-Jan-21 03:30N 50°53' E 001°13'611.8
2018-Jan-21 03:00N 50°56' E 001°20'611.3
2018-Jan-21 02:30N 51°01' E 001°26'611.5
2018-Jan-21 02:01N 51°05' E 001°33'510.7
2018-Jan-21 01:30N 51°07' E 001°40'612.1
2018-Jan-21 01:00N 51°03' E 001°48'5 9.7
2018-Jan-21 00:30N 51°03' E 001°55'816.0
2018-Jan-21 00:00N 51°03' E 002°08'3 5.4
2018-Jan-20 23:26N 51°01' E 002°11'0 0.0
2018-Jan-20 22:58N 51°01' E 002°11'0 0.0
2018-Jan-20 22:30N 51°01' E 002°11'0 0.0
2018-Jan-20 21:59N 51°00' E 002°11'0 0.0
2018-Jan-20 21:23N 51°01' E 002°11'0 0.0
2018-Jan-20 20:58N 51°01' E 002°11'0 0.0
2018-Jan-20 20:29N 51°01' E 002°11'0 0.0
2018-Jan-20 19:47N 51°01' E 002°11'0 0.0
2018-Jan-20 19:17N 51°01' E 002°11'0 0.0
2018-Jan-20 18:56N 51°01' E 002°11'0 0.0
2018-Jan-20 18:25N 51°01' E 002°11'0 0.0
2018-Jan-20 17:46N 51°01' E 002°11'0 0.0
2018-Jan-20 17:24N 51°01' E 002°11'0 0.0
2018-Jan-20 17:00N 51°01' E 002°11'0 0.0
2018-Jan-20 16:29N 51°01' E 002°11'0 0.0
2018-Jan-20 15:54N 51°01' E 002°11'0 0.0
2018-Jan-20 15:30N 51°01' E 002°11'0 0.0
2018-Jan-20 14:59N 51°01' E 002°11'0 0.0
2018-Jan-20 14:29N 51°01' E 002°11'0 0.0
2018-Jan-20 14:00N 51°01' E 002°11'0 0.0
2018-Jan-20 13:29N 51°01' E 002°11'0 0.1
2018-Jan-20 13:00N 51°01' E 002°11'2 4.0
2018-Jan-20 12:27N 51°03' E 002°10'614.4
2018-Jan-20 12:00N 51°03' E 001°60'714.1
2018-Jan-20 11:30N 51°03' E 001°48'3 5.2
2018-Jan-20 11:00N 51°03' E 001°44'611.1
2018-Jan-20 10:31N 51°08' E 001°39'713.9
2018-Jan-20 10:00N 51°13' E 001°46'714.5
2018-Jan-20 09:30N 51°19' E 001°53'715.0
2018-Jan-20 09:01N 51°23' E 002°02'1019.8
2018-Jan-20 08:31N 51°21' E 002°18'1019.9
2018-Jan-20 08:00N 51°23' E 002°33'815.3
2018-Jan-20 07:28N 51°22' E 002°46'714.8
2018-Jan-20 07:00N 51°23' E 002°57'918.8
2018-Jan-20 06:30N 51°24' E 003°12'1019.6
2018-Jan-20 06:00N 51°25' E 003°28'816.3
2018-Jan-20 05:30N 51°27' E 003°40'2 3.9
2018-Jan-20 05:00N 51°28' E 003°43'0 0.0
2018-Jan-20 04:28N 51°28' E 003°43'0 0.0
2018-Jan-20 03:58N 51°28' E 003°43'0 0.0
2018-Jan-20 03:25N 51°28' E 003°43'0 0.0
2018-Jan-20 02:55N 51°28' E 003°43'0 0.0
2018-Jan-20 02:28N 51°28' E 003°43'0 0.0
2018-Jan-20 01:58N 51°28' E 003°43'0 0.0
2018-Jan-20 01:22N 51°28' E 003°43'0 0.0
2018-Jan-20 00:55N 51°28' E 003°43'0 0.0
2018-Jan-20 00:13N 51°28' E 003°43'0 0.0
2018-Jan-19 23:55N 51°28' E 003°43'0 0.0
2018-Jan-19 23:13N 51°28' E 003°43'0 0.0
2018-Jan-19 22:43N 51°28' E 003°43'0 0.0
2018-Jan-19 22:25N 51°28' E 003°43'0 0.0
2018-Jan-19 21:58N 51°28' E 003°43'0 0.0
2018-Jan-19 21:25N 51°28' E 003°43'0 0.0
2018-Jan-19 20:52N 51°28' E 003°43'0 0.0
2018-Jan-19 20:28N 51°28' E 003°43'0 0.0
2018-Jan-19 19:55N 51°28' E 003°43'0 0.0
2018-Jan-19 19:25N 51°28' E 003°43'0 0.0
2018-Jan-19 18:58N 51°28' E 003°43'0 0.0
2018-Jan-19 18:25N 51°28' E 003°43'0 0.0
2018-Jan-19 17:58N 51°28' E 003°43'0 0.0
2018-Jan-19 17:28N 51°28' E 003°43'0 0.0
2018-Jan-19 16:58N 51°28' E 003°43'0 0.0
2018-Jan-19 16:30N 51°28' E 003°43'0 0.5
2018-Jan-19 16:00N 51°28' E 003°43'2 3.6
2018-Jan-19 15:30N 51°27' E 003°40'5 9.9
2018-Jan-19 15:01N 51°23' E 003°44'611.2
2018-Jan-19 14:29N 51°21' E 003°53'4 8.3
2018-Jan-19 14:00N 51°24' E 003°57'3 6.1
2018-Jan-19 13:30N 51°24' E 004°02'4 8.8
2018-Jan-19 13:00N 51°23' E 004°09'4 7.3
2018-Jan-19 12:30N 51°21' E 004°14'2 3.2
2018-Jan-19 12:00N 51°21' E 004°16'0 0.0
2018-Jan-19 11:28N 51°21' E 004°16'0 0.0
2018-Jan-19 10:59N 51°21' E 004°16'0 0.0
2018-Jan-19 10:30N 51°21' E 004°16'0 0.0
2018-Jan-19 10:00N 51°21' E 004°16'0 0.0
2018-Jan-19 09:30N 51°21' E 004°16'0 0.0
2018-Jan-19 09:00N 51°21' E 004°16'0 0.0
2018-Jan-19 08:31N 51°21' E 004°16'0 0.0
2018-Jan-19 08:00N 51°21' E 004°16'0 0.0
2018-Jan-19 07:30N 51°21' E 004°16'0 0.0
2018-Jan-19 06:57N 51°21' E 004°16'0 0.0
2018-Jan-19 06:30N 51°21' E 004°16'0 0.0
2018-Jan-19 05:56N 51°21' E 004°16'0 0.0
2018-Jan-19 05:30N 51°21' E 004°16'0 0.0
2018-Jan-19 04:55N 51°21' E 004°16'0 0.0
2018-Jan-19 04:30N 51°21' E 004°16'0 0.0
2018-Jan-19 03:58N 51°21' E 004°16'0 0.0
2018-Jan-19 03:26N 51°21' E 004°16'0 0.0
2018-Jan-19 03:00N 51°21' E 004°16'0 0.0
2018-Jan-19 02:30N 51°21' E 004°16'0 0.0
2018-Jan-19 01:55N 51°21' E 004°16'0 0.0
2018-Jan-19 01:31N 51°21' E 004°16'0 0.0
2018-Jan-19 00:55N 51°21' E 004°16'0 0.0
2018-Jan-19 00:31N 51°21' E 004°16'0 0.0
2018-Jan-18 23:54N 51°21' E 004°16'0 0.0
2018-Jan-18 23:31N 51°21' E 004°16'0 0.0
2018-Jan-18 22:56N 51°21' E 004°16'0 0.0
2018-Jan-18 22:30N 51°21' E 004°16'0 0.0
2018-Jan-18 22:00N 51°21' E 004°16'0 0.0
2018-Jan-18 21:30N 51°21' E 004°16'0 0.0
2018-Jan-18 21:00N 51°21' E 004°16'0 0.0
2018-Jan-18 20:29N 51°21' E 004°16'0 0.0
2018-Jan-18 19:54N 51°21' E 004°16'0 0.0
2018-Jan-18 19:30N 51°21' E 004°16'0 0.0
2018-Jan-18 18:57N 51°21' E 004°16'0 0.0
2018-Jan-18 18:17N 51°21' E 004°16'0 0.0
2018-Jan-18 18:00N 51°21' E 004°16'0 0.0
2018-Jan-18 17:30N 51°21' E 004°16'0 0.0
2018-Jan-18 17:00N 51°21' E 004°16'0 0.0
2018-Jan-18 16:28N 51°21' E 004°16'0 0.0
2018-Jan-18 16:00N 51°21' E 004°16'0 0.0
2018-Jan-18 15:27N 51°21' E 004°16'0 0.0
2018-Jan-18 15:00N 51°21' E 004°16'0 0.0
2018-Jan-18 14:30N 51°21' E 004°16'0 0.0
2018-Jan-18 14:00N 51°21' E 004°16'0 0.0
2018-Jan-18 13:30N 51°21' E 004°16'0 0.0
2018-Jan-18 12:59N 51°21' E 004°16'0 0.0
2018-Jan-18 12:30N 51°21' E 004°16'0 0.0
2018-Jan-18 12:00N 51°21' E 004°16'0 0.0
2018-Jan-18 11:31N 51°21' E 004°16'0 0.0
2018-Jan-18 11:01N 51°21' E 004°16'0 0.0
2018-Jan-18 10:30N 51°21' E 004°16'0 0.0
2018-Jan-18 10:00N 51°21' E 004°16'0 0.0
2018-Jan-18 09:31N 51°21' E 004°16'0 0.0
2018-Jan-18 09:00N 51°21' E 004°16'0 0.0
2018-Jan-18 08:30N 51°21' E 004°16'0 0.0
2018-Jan-18 08:00N 51°21' E 004°16'0 0.0
2018-Jan-18 07:30N 51°21' E 004°16'0 0.0
2018-Jan-18 07:00N 51°21' E 004°16'0 0.0
2018-Jan-18 06:31N 51°21' E 004°16'0 0.0
2018-Jan-18 06:00N 51°21' E 004°16'0 0.0
2018-Jan-18 05:30N 51°21' E 004°16'0 0.0
2018-Jan-18 05:00N 51°21' E 004°16'0 0.0
2018-Jan-18 04:30N 51°21' E 004°16'0 0.0
2018-Jan-18 04:00N 51°21' E 004°16'0 0.0
2018-Jan-18 03:30N 51°21' E 004°16'0 0.0
2018-Jan-18 03:00N 51°21' E 004°16'0 0.0
2018-Jan-18 02:31N 51°21' E 004°16'0 0.2
2018-Jan-18 02:00N 51°21' E 004°16'3 5.5
2018-Jan-18 01:30N 51°22' E 004°13'5 9.5
2018-Jan-18 01:00N 51°22' E 004°05'9 9.2
2018-Jan-18 00:00N 51°21' E 003°51'113.1
2018-Jan-17 23:57N 51°21' E 003°50'  
Track history (hours):
 
Tides and Currents Weather Stations Pressure Air Temp Water Temp Dewpoint Dewpoint Depression Visibility Wind Speed Wind Dir Waves Ship Positions

CMA CGM Africa Four

Last reported at 2018-Jan-23 02:00 UTC. Time now 2018-Jan-23 02:17 UTC.
Position N 49°27' E 000°10'.

Length 227 m; draft 10.1 m.

Type: Ship (hazmat cat A). MMSI: 311044100.

Date/timePositionNaut miles runAvg speedWind from/ knotsBaromVisibWave heightAir tempDewpointWater temp
2018-Jan-23 02:00N 49°27' E 000°10'0 0.0
2018-Jan-23 01:30N 49°27' E 000°10'0 0.0
2018-Jan-23 01:00N 49°27' E 000°10'0 0.0
2018-Jan-23 00:30N 49°27' E 000°10'0 0.0
2018-Jan-23 00:00N 49°27' E 000°10'0 0.0
2018-Jan-22 23:30N 49°27' E 000°10'0 0.0
2018-Jan-22 23:00N 49°27' E 000°10'0 0.0
2018-Jan-22 22:30N 49°27' E 000°10'0 0.0
2018-Jan-22 22:00N 49°27' E 000°10'0 0.0
2018-Jan-22 21:30N 49°27' E 000°10'0 0.0
2018-Jan-22 21:00N 49°27' E 000°10'0 0.0
2018-Jan-22 20:30N 49°27' E 000°10'0 0.0
2018-Jan-22 20:00N 49°27' E 000°10'0 0.0
2018-Jan-22 19:30N 49°27' E 000°10'0 0.0
2018-Jan-22 19:00N 49°27' E 000°10'0 0.0
2018-Jan-22 18:30N 49°27' E 000°10'0 0.0
2018-Jan-22 18:00N 49°27' E 000°10'0 0.0
2018-Jan-22 17:30N 49°27' E 000°10'0 0.0
2018-Jan-22 17:00N 49°27' E 000°10'0 0.0
2018-Jan-22 16:30N 49°27' E 000°10'0 0.0
2018-Jan-22 16:00N 49°27' E 000°10'0 0.0
2018-Jan-22 15:30N 49°27' E 000°10'0 0.0
2018-Jan-22 15:00N 49°27' E 000°10'0 0.0
2018-Jan-22 14:30N 49°27' E 000°10'0 0.0
2018-Jan-22 14:00N 49°27' E 000°10'0 0.0
2018-Jan-22 13:30N 49°27' E 000°10'0 0.7
2018-Jan-22 13:00N 49°27' E 000°10'2 4.2
2018-Jan-22 12:31N 49°28' E 000°07'5 9.1
2018-Jan-22 12:01N 49°30' E 000°01'510.2
2018-Jan-22 11:30N 49°32' W 000°07'1 1.9
2018-Jan-22 11:00N 49°32' W 000°08'4 7.5
2018-Jan-22 10:30N 49°35' W 000°12'1 2.1
2018-Jan-22 10:00N 49°35' W 000°14'0 0.1
2018-Jan-22 09:17N 49°35' W 000°14'0 0.1
2018-Jan-22 08:56N 49°35' W 000°14'0 0.1
2018-Jan-22 08:29N 49°35' W 000°14'0 0.0
2018-Jan-22 07:59N 49°35' W 000°14'0 0.4
2018-Jan-22 07:29N 49°35' W 000°14'0 0.3
2018-Jan-22 06:58N 49°35' W 000°14'0 0.1
2018-Jan-22 06:30N 49°35' W 000°14'0 0.1
2018-Jan-22 06:00N 49°35' W 000°14'0 0.2
2018-Jan-22 05:29N 49°35' W 000°14'0 0.2
2018-Jan-22 04:58N 49°35' W 000°14'0 0.2
2018-Jan-22 04:30N 49°35' W 000°14'0 0.1
2018-Jan-22 03:58N 49°35' W 000°14'0 0.0
2018-Jan-22 03:28N 49°35' W 000°14'0 0.1
2018-Jan-22 02:58N 49°35' W 000°14'0 0.0
2018-Jan-22 02:30N 49°35' W 000°14'0 0.0
2018-Jan-22 01:59N 49°35' W 000°14'0 0.0
2018-Jan-22 01:25N 49°35' W 000°14'0 0.0
2018-Jan-22 00:58N 49°35' W 000°14'0 0.0
2018-Jan-22 00:28N 49°35' W 000°14'0 0.0
2018-Jan-22 00:00N 49°35' W 000°14'0 0.0
2018-Jan-21 23:30N 49°35' W 000°14'0 0.1
2018-Jan-21 22:59N 49°35' W 000°14'0 0.0
2018-Jan-21 22:29N 49°35' W 000°14'0 0.0
2018-Jan-21 21:59N 49°35' W 000°14'0 0.0
2018-Jan-21 21:28N 49°35' W 000°14'0 0.0
2018-Jan-21 20:55N 49°35' W 000°14'0 0.0
2018-Jan-21 20:28N 49°35' W 000°14'0 0.0
2018-Jan-21 20:00N 49°35' W 000°14'0 0.0
2018-Jan-21 19:29N 49°35' W 000°14'0 0.0
2018-Jan-21 18:59N 49°35' W 000°14'0 0.0
2018-Jan-21 18:30N 49°35' W 000°14'0 0.1
2018-Jan-21 18:00N 49°35' W 000°14'0 0.1
2018-Jan-21 17:30N 49°35' W 000°14'0 0.0
2018-Jan-21 16:59N 49°35' W 000°14'0 0.0
2018-Jan-21 16:29N 49°35' W 000°14'0 0.0
2018-Jan-21 16:00N 49°35' W 000°14'0 0.0
2018-Jan-21 15:29N 49°35' W 000°14'0 0.1
2018-Jan-21 15:00N 49°35' W 000°14'0 0.0
2018-Jan-21 14:29N 49°35' W 000°14'0 0.0
2018-Jan-21 13:59N 49°35' W 000°14'0 0.0
2018-Jan-21 13:29N 49°35' W 000°14'0 0.1
2018-Jan-21 13:01N 49°35' W 000°14'0 0.1
2018-Jan-21 12:30N 49°35' W 000°14'2 4.2
2018-Jan-21 12:00N 49°36' W 000°12'4 8.4
2018-Jan-21 11:30N 49°40' W 000°10'5 9.9
2018-Jan-21 11:00N 49°45' W 000°09'510.3
2018-Jan-21 10:30N 49°51' W 000°09'510.7
2018-Jan-21 10:00N 49°56' W 000°08'611.2
2018-Jan-21 09:30N 50°02' W 000°07'611.5
2018-Jan-21 09:00N 50°07' W 000°06'912.0
2018-Jan-21 08:15N 50°16' W 000°04'512.2
2018-Jan-21 07:50N 50°21' W 000°04'513.5
2018-Jan-21 07:30N 50°26' W 000°03'613.1
2018-Jan-21 07:00N 50°29' E 000°06'714.7
2018-Jan-21 06:30N 50°32' E 000°17'714.8
2018-Jan-21 06:00N 50°34' E 000°28'714.4
2018-Jan-21 05:30N 50°37' E 000°38'714.3
2018-Jan-21 05:00N 50°42' E 000°47'713.7
2018-Jan-21 04:30N 50°45' E 000°56'713.3
2018-Jan-21 04:00N 50°49' E 001°05'612.7
2018-Jan-21 03:30N 50°53' E 001°13'611.8
2018-Jan-21 03:00N 50°56' E 001°20'611.3
2018-Jan-21 02:30N 51°01' E 001°26'611.5
2018-Jan-21 02:01N 51°05' E 001°33'510.7
2018-Jan-21 01:30N 51°07' E 001°40'612.1
2018-Jan-21 01:00N 51°03' E 001°48'5 9.7
2018-Jan-21 00:30N 51°03' E 001°55'816.0
2018-Jan-21 00:00N 51°03' E 002°08'3 5.4
2018-Jan-20 23:26N 51°01' E 002°11'0 0.0
2018-Jan-20 22:58N 51°01' E 002°11'0 0.0
2018-Jan-20 22:30N 51°01' E 002°11'0 0.0
2018-Jan-20 21:59N 51°00' E 002°11'0 0.0
2018-Jan-20 21:23N 51°01' E 002°11'0 0.0
2018-Jan-20 20:58N 51°01' E 002°11'0 0.0
2018-Jan-20 20:29N 51°01' E 002°11'0 0.0
2018-Jan-20 19:47N 51°01' E 002°11'0 0.0
2018-Jan-20 19:17N 51°01' E 002°11'0 0.0
2018-Jan-20 18:56N 51°01' E 002°11'0 0.0
2018-Jan-20 18:25N 51°01' E 002°11'0 0.0
2018-Jan-20 17:46N 51°01' E 002°11'0 0.0
2018-Jan-20 17:24N 51°01' E 002°11'0 0.0
2018-Jan-20 17:00N 51°01' E 002°11'0 0.0
2018-Jan-20 16:29N 51°01' E 002°11'0 0.0
2018-Jan-20 15:54N 51°01' E 002°11'0 0.0
2018-Jan-20 15:30N 51°01' E 002°11'0 0.0
2018-Jan-20 14:59N 51°01' E 002°11'0 0.0
2018-Jan-20 14:29N 51°01' E 002°11'0 0.0
2018-Jan-20 14:00N 51°01' E 002°11'0 0.0
2018-Jan-20 13:29N 51°01' E 002°11'0 0.1
2018-Jan-20 13:00N 51°01' E 002°11'2 4.0
2018-Jan-20 12:27N 51°03' E 002°10'614.4
2018-Jan-20 12:00N 51°03' E 001°60'714.1
2018-Jan-20 11:30N 51°03' E 001°48'3 5.2
2018-Jan-20 11:00N 51°03' E 001°44'611.1
2018-Jan-20 10:31N 51°08' E 001°39'713.9
2018-Jan-20 10:00N 51°13' E 001°46'714.5
2018-Jan-20 09:30N 51°19' E 001°53'715.0
2018-Jan-20 09:01N 51°23' E 002°02'1019.8
2018-Jan-20 08:31N 51°21' E 002°18'1019.9
2018-Jan-20 08:00N 51°23' E 002°33'815.3
2018-Jan-20 07:28N 51°22' E 002°46'714.8
2018-Jan-20 07:00N 51°23' E 002°57'918.8
2018-Jan-20 06:30N 51°24' E 003°12'1019.6
2018-Jan-20 06:00N 51°25' E 003°28'816.3
2018-Jan-20 05:30N 51°27' E 003°40'2 3.9
2018-Jan-20 05:00N 51°28' E 003°43'0 0.0
2018-Jan-20 04:28N 51°28' E 003°43'0 0.0
2018-Jan-20 03:58N 51°28' E 003°43'0 0.0
2018-Jan-20 03:25N 51°28' E 003°43'0 0.0
2018-Jan-20 02:55N 51°28' E 003°43'0 0.0
2018-Jan-20 02:28N 51°28' E 003°43'0 0.0
2018-Jan-20 01:58N 51°28' E 003°43'0 0.0
2018-Jan-20 01:22N 51°28' E 003°43'0 0.0
2018-Jan-20 00:55N 51°28' E 003°43'0 0.0
2018-Jan-20 00:13N 51°28' E 003°43'0 0.0
2018-Jan-19 23:55N 51°28' E 003°43'0 0.0
2018-Jan-19 23:13N 51°28' E 003°43'0 0.0
2018-Jan-19 22:43N 51°28' E 003°43'0 0.0
2018-Jan-19 22:25N 51°28' E 003°43'0 0.0
2018-Jan-19 21:58N 51°28' E 003°43'0 0.0
2018-Jan-19 21:25N 51°28' E 003°43'0 0.0
2018-Jan-19 20:52N 51°28' E 003°43'0 0.0
2018-Jan-19 20:28N 51°28' E 003°43'0 0.0
2018-Jan-19 19:55N 51°28' E 003°43'0 0.0
2018-Jan-19 19:25N 51°28' E 003°43'0 0.0
2018-Jan-19 18:58N 51°28' E 003°43'0 0.0
2018-Jan-19 18:25N 51°28' E 003°43'0 0.0
2018-Jan-19 17:58N 51°28' E 003°43'0 0.0
2018-Jan-19 17:28N 51°28' E 003°43'0 0.0
2018-Jan-19 16:58N 51°28' E 003°43'0 0.0
2018-Jan-19 16:30N 51°28' E 003°43'0 0.5
2018-Jan-19 16:00N 51°28' E 003°43'2 3.6
2018-Jan-19 15:30N 51°27' E 003°40'5 9.9
2018-Jan-19 15:01N 51°23' E 003°44'611.2
2018-Jan-19 14:29N 51°21' E 003°53'4 8.3
2018-Jan-19 14:00N 51°24' E 003°57'3 6.1
2018-Jan-19 13:30N 51°24' E 004°02'4 8.8
2018-Jan-19 13:00N 51°23' E 004°09'4 7.3
2018-Jan-19 12:30N 51°21' E 004°14'2 3.2
2018-Jan-19 12:00N 51°21' E 004°16'0 0.0
2018-Jan-19 11:28N 51°21' E 004°16'0 0.0
2018-Jan-19 10:59N 51°21' E 004°16'0 0.0
2018-Jan-19 10:30N 51°21' E 004°16'0 0.0
2018-Jan-19 10:00N 51°21' E 004°16'0 0.0
2018-Jan-19 09:30N 51°21' E 004°16'0 0.0
2018-Jan-19 09:00N 51°21' E 004°16'0 0.0
2018-Jan-19 08:31N 51°21' E 004°16'0 0.0
2018-Jan-19 08:00N 51°21' E 004°16'0 0.0
2018-Jan-19 07:30N 51°21' E 004°16'0 0.0
2018-Jan-19 06:57N 51°21' E 004°16'0 0.0
2018-Jan-19 06:30N 51°21' E 004°16'0 0.0
2018-Jan-19 05:56N 51°21' E 004°16'0 0.0
2018-Jan-19 05:30N 51°21' E 004°16'0 0.0
2018-Jan-19 04:55N 51°21' E 004°16'0 0.0
2018-Jan-19 04:30N 51°21' E 004°16'0 0.0
2018-Jan-19 03:58N 51°21' E 004°16'0 0.0
2018-Jan-19 03:26N 51°21' E 004°16'0 0.0
2018-Jan-19 03:00N 51°21' E 004°16'0 0.0
2018-Jan-19 02:30N 51°21' E 004°16'0 0.0
2018-Jan-19 01:55N 51°21' E 004°16'0 0.0
2018-Jan-19 01:31N 51°21' E 004°16'0 0.0
2018-Jan-19 00:55N 51°21' E 004°16'0 0.0
2018-Jan-19 00:31N 51°21' E 004°16'0 0.0
2018-Jan-18 23:54N 51°21' E 004°16'0 0.0
2018-Jan-18 23:31N 51°21' E 004°16'0 0.0
2018-Jan-18 22:56N 51°21' E 004°16'0 0.0
2018-Jan-18 22:30N 51°21' E 004°16'0 0.0
2018-Jan-18 22:00N 51°21' E 004°16'0 0.0
2018-Jan-18 21:30N 51°21' E 004°16'0 0.0
2018-Jan-18 21:00N 51°21' E 004°16'0 0.0
2018-Jan-18 20:29N 51°21' E 004°16'0 0.0
2018-Jan-18 19:54N 51°21' E 004°16'0 0.0
2018-Jan-18 19:30N 51°21' E 004°16'0 0.0
2018-Jan-18 18:57N 51°21' E 004°16'0 0.0
2018-Jan-18 18:17N 51°21' E 004°16'0 0.0
2018-Jan-18 18:00N 51°21' E 004°16'0 0.0
2018-Jan-18 17:30N 51°21' E 004°16'0 0.0
2018-Jan-18 17:00N 51°21' E 004°16'0 0.0
2018-Jan-18 16:28N 51°21' E 004°16'0 0.0
2018-Jan-18 16:00N 51°21' E 004°16'0 0.0
2018-Jan-18 15:27N 51°21' E 004°16'0 0.0
2018-Jan-18 15:00N 51°21' E 004°16'0 0.0
2018-Jan-18 14:30N 51°21' E 004°16'0 0.0
2018-Jan-18 14:00N 51°21' E 004°16'0 0.0
2018-Jan-18 13:30N 51°21' E 004°16'0 0.0
2018-Jan-18 12:59N 51°21' E 004°16'0 0.0
2018-Jan-18 12:30N 51°21' E 004°16'0 0.0
2018-Jan-18 12:00N 51°21' E 004°16'0 0.0
2018-Jan-18 11:31N 51°21' E 004°16'0 0.0
2018-Jan-18 11:01N 51°21' E 004°16'0 0.0
2018-Jan-18 10:30N 51°21' E 004°16'0 0.0
2018-Jan-18 10:00N 51°21' E 004°16'0 0.0
2018-Jan-18 09:31N 51°21' E 004°16'0 0.0
2018-Jan-18 09:00N 51°21' E 004°16'0 0.0
2018-Jan-18 08:30N 51°21' E 004°16'0 0.0
2018-Jan-18 08:00N 51°21' E 004°16'0 0.0
2018-Jan-18 07:30N 51°21' E 004°16'0 0.0
2018-Jan-18 07:00N 51°21' E 004°16'0 0.0
2018-Jan-18 06:31N 51°21' E 004°16'0 0.0
2018-Jan-18 06:00N 51°21' E 004°16'0 0.0
2018-Jan-18 05:30N 51°21' E 004°16'0 0.0
2018-Jan-18 05:00N 51°21' E 004°16'0 0.0
2018-Jan-18 04:30N 51°21' E 004°16'0 0.0
2018-Jan-18 04:00N 51°21' E 004°16'0 0.0
2018-Jan-18 03:30N 51°21' E 004°16'0 0.0
2018-Jan-18 03:00N 51°21' E 004°16'0 0.0
2018-Jan-18 02:31N 51°21' E 004°16'0 0.2
2018-Jan-18 02:00N 51°21' E 004°16'3 5.5
2018-Jan-18 01:30N 51°22' E 004°13'5 9.5
2018-Jan-18 01:00N 51°22' E 004°05'9 9.2
2018-Jan-18 00:00N 51°21' E 003°51'113.1
2018-Jan-17 23:57N 51°21' E 003°50'  

Dump ship's entire track history